createdAt,value
2018-08-09T00:01:31.118Z,18.2
2018-08-09T00:07:01.334Z,18.1
2018-08-09T00:12:37.148Z,18.1
2018-08-09T00:18:02.589Z,18
2018-08-09T00:23:32.253Z,17.9
2018-08-09T00:29:07.182Z,17.8
2018-08-09T00:34:32.448Z,17.7
2018-08-09T00:40:07.402Z,17.6
2018-08-09T00:45:31.672Z,17.6
2018-08-09T00:51:02.215Z,17.6
2018-08-09T00:56:31.807Z,17.6
2018-08-09T01:02:07.784Z,17.6
2018-08-09T01:07:32.989Z,17.6
2018-08-09T01:13:07.625Z,17.6
2018-08-09T01:18:33.179Z,17.6
2018-08-09T01:24:02.887Z,17.6
2018-08-09T01:29:38.599Z,17.6
2018-08-09T01:35:08.902Z,17.6
2018-08-09T01:40:33.503Z,17.7
2018-08-09T01:46:09.117Z,17.7
2018-08-09T01:51:39.689Z,17.7
2018-08-09T01:57:05.326Z,17.7
2018-08-09T02:02:40.926Z,17.7
2018-08-09T02:08:11.530Z,17.8
2018-08-09T02:13:37.096Z,17.8
2018-08-09T02:19:06.953Z,17.7
2018-08-09T02:24:36.264Z,17.7
2018-08-09T02:30:06.132Z,17.7
2018-08-09T02:35:40.533Z,17.7
2018-08-09T02:41:06.321Z,17.7
2018-08-09T02:46:35.684Z,17.7
2018-08-09T02:52:05.313Z,17.7
2018-08-09T02:57:40.896Z,17.6
2018-08-09T03:03:06.681Z,17.6
2018-08-09T03:08:36.974Z,17.6
2018-08-09T03:14:06.555Z,17.6
2018-08-09T03:19:41.196Z,17.5
2018-08-09T03:25:05.708Z,17.5
2018-08-09T03:30:36.335Z,17.4
2018-08-09T03:36:05.833Z,17.4
2018-08-09T03:41:40.417Z,17.4
2018-08-09T03:47:10.933Z,17.3
2018-08-09T03:52:35.541Z,17.3
2018-08-09T03:58:10.012Z,17.2
2018-08-09T04:03:40.511Z,17.2
2018-08-09T04:09:04.027Z,17.2
2018-08-09T04:14:33.781Z,17.2
2018-08-09T04:20:04.549Z,17.3
2018-08-09T04:25:34.573Z,17.3
2018-08-09T04:31:05.369Z,17.4
2018-08-09T04:36:34.669Z,17.4
2018-08-09T04:42:04.255Z,17.4
2018-08-09T04:47:34.781Z,17.4
2018-08-09T04:53:09.844Z,17.4
2018-08-09T04:58:34.134Z,17.5
2018-08-09T05:04:03.450Z,17.5
2018-08-09T05:09:34.309Z,17.5
2018-08-09T05:15:04.592Z,17.6
2018-08-09T05:20:39.837Z,17.6
2018-08-09T05:26:04.838Z,17.7
2018-08-09T05:31:35.360Z,17.7
2018-08-09T05:37:04.969Z,17.9
2018-08-09T05:42:39.702Z,18
2018-08-09T05:48:05.234Z,18.1
2018-08-09T05:53:35.857Z,18.1
2018-08-09T05:59:05.465Z,18.2
2018-08-09T06:04:36.083Z,18.3
2018-08-09T06:10:06.748Z,18.5
2018-08-09T06:15:36.446Z,18.7
2018-08-09T06:21:06.143Z,18.9
2018-08-09T06:26:36.891Z,19
2018-08-09T06:32:06.829Z,19.1
2018-08-09T06:37:36.285Z,19.2
2018-08-09T06:43:05.993Z,19.3
2018-08-09T06:48:40.720Z,19.4
2018-08-09T06:54:05.457Z,19.4
2018-08-09T06:59:36.183Z,19.5
2018-08-09T07:05:05.920Z,19.7
2018-08-09T07:10:35.715Z,19.9
2018-08-09T07:16:05.728Z,20
2018-08-09T07:21:41.236Z,20.1
2018-08-09T07:27:11.064Z,20.2
2018-08-09T07:32:36.899Z,20.4
2018-08-09T07:38:08.224Z,20.5
2018-08-09T07:43:38.894Z,20.5
2018-08-09T07:49:08.398Z,20.6
2018-08-09T07:54:43.324Z,20.7
2018-08-09T08:00:09.143Z,20.9
2018-08-09T08:05:40.020Z,21.1
2018-08-09T08:11:11.181Z,21.1
2018-08-09T08:16:40.823Z,21.2
2018-08-09T08:22:10.740Z,21.3
2018-08-09T08:27:41.336Z,21.3
2018-08-09T08:27:46.032Z,21.3
2018-08-09T08:33:10.627Z,21.4
2018-08-09T08:38:40.838Z,21.6
2018-08-09T08:44:11.853Z,21.6
2018-08-09T08:49:42.516Z,21.6
2018-08-09T08:55:13.562Z,21.8
2018-08-09T09:00:43.798Z,22
2018-08-09T09:06:18.861Z,22.3
2018-08-09T09:11:44.774Z,22.4
2018-08-09T09:17:20.669Z,22.4
2018-08-09T09:22:46.881Z,22.4
2018-08-09T09:28:17.761Z,22.5
2018-08-09T09:33:49.091Z,22.6
2018-08-09T09:39:19.929Z,22.6
2018-08-09T09:44:50.283Z,22.8
2018-08-09T09:50:26.192Z,23
2018-08-09T09:55:52.399Z,23.2
2018-08-09T10:01:23.532Z,23.2
2018-08-09T10:06:59.923Z,23.2
2018-08-09T10:12:25.824Z,23.3
2018-08-09T10:17:56.002Z,23.3
2018-08-09T10:23:32.115Z,23.2
2018-08-09T10:28:58.311Z,23.4
2018-08-09T10:34:28.496Z,23.7
2018-08-09T10:39:59.006Z,24
2018-08-09T10:39:59.177Z,24
2018-08-09T10:45:30.038Z,24.3
2018-08-09T10:51:05.639Z,24.6
2018-08-09T10:56:36.660Z,24.7
2018-08-09T11:02:03.471Z,24.8
2018-08-09T11:07:34.638Z,24.8
2018-08-09T11:13:05.463Z,24.6
2018-08-09T11:18:35.120Z,24.6
2018-08-09T11:24:05.388Z,24.6
2018-08-09T11:24:05.780Z,24.6
2018-08-09T11:29:35.988Z,24.6
2018-08-09T11:35:05.999Z,24.7
2018-08-09T11:40:37.390Z,24.8
2018-08-09T11:46:08.998Z,24.7
2018-08-09T11:51:44.628Z,24.6
2018-08-09T11:57:10.358Z,24.5
2018-08-09T12:02:45.840Z,24.5
2018-08-09T12:08:11.008Z,24.6
2018-08-09T12:13:46.398Z,24.6
2018-08-09T12:19:12.916Z,24.5
2018-08-09T12:24:43.004Z,24.6
2018-08-09T12:30:14.398Z,24.7
2018-08-09T12:35:50.746Z,24.7
2018-08-09T12:41:17.074Z,24.6
2018-08-09T12:46:48.371Z,24.6
2018-08-09T12:52:19.921Z,24.5
2018-08-09T12:57:50.981Z,24.5
2018-08-09T13:03:21.342Z,24.4
2018-08-09T13:08:52.843Z,24.3
2018-08-09T13:14:28.844Z,24.1
2018-08-09T13:19:55.137Z,24.1
2018-08-09T13:25:30.545Z,24.2
2018-08-09T13:30:56.888Z,24.4
2018-08-09T13:36:27.294Z,24.6
2018-08-09T13:41:57.473Z,24.6
2018-08-09T13:47:28.131Z,24.5
2018-08-09T13:53:03.206Z,24.4
2018-08-09T13:58:33.587Z,24.4
2018-08-09T14:04:03.751Z,24.4
2018-08-09T14:09:29.326Z,24.5
2018-08-09T14:15:04.381Z,24.8
2018-08-09T14:20:29.869Z,25
2018-08-09T14:26:00.154Z,24.9
2018-08-09T14:31:30.873Z,24.9
2018-08-09T14:37:06.030Z,24.7
2018-08-09T14:42:32.382Z,24.5
2018-08-09T14:48:08.558Z,24.2
2018-08-09T14:53:34.822Z,24
2018-08-09T14:59:06.057Z,23.7
2018-08-09T15:04:41.290Z,23.5
2018-08-09T15:10:06.456Z,23.1
2018-08-09T15:15:36.571Z,22.8
2018-08-09T15:21:13.046Z,22.6
2018-08-09T15:26:37.777Z,22.5
2018-08-09T15:32:13.126Z,22.5
2018-08-09T15:37:43.474Z,22.6
2018-08-09T15:43:08.040Z,22.7
2018-08-09T15:48:38.258Z,22.8
2018-08-09T15:54:08.403Z,22.8
2018-08-09T15:59:39.454Z,22.7
2018-08-09T16:05:14.821Z,22.5
2018-08-09T16:10:45.595Z,22.3
2018-08-09T16:16:11.719Z,22.2
2018-08-09T16:16:12.964Z,22.2
2018-08-09T16:21:47.700Z,22.1
2018-08-09T16:21:49.376Z,22.1
2018-08-09T16:27:18.742Z,21.9
2018-08-09T16:32:45.011Z,21.7
2018-08-09T16:38:19.724Z,21.6
2018-08-09T16:44:18.485Z,21.7
2018-08-09T16:49:20.966Z,21.8
2018-08-09T16:54:46.689Z,21.9
2018-08-09T17:00:18.326Z,22
2018-08-09T17:05:48.756Z,22.1
2018-08-09T17:11:18.815Z,22.1
2018-08-09T17:16:54.120Z,22.1
2018-08-09T17:22:23.906Z,22.1
2018-08-09T17:27:50.205Z,22
2018-08-09T17:33:26.008Z,22
2018-08-09T17:38:51.239Z,21.9
2018-08-09T17:44:20.954Z,21.9
2018-08-09T17:49:52.190Z,21.8
2018-08-09T17:55:22.016Z,21.8
2018-08-09T18:01:08.603Z,21.8
2018-08-09T18:06:22.930Z,21.8
2018-08-09T18:11:57.002Z,21.8
2018-08-09T18:17:22.292Z,21.8
2018-08-09T18:17:22.625Z,21.8
2018-08-09T18:22:53.316Z,21.8
2018-08-09T18:28:28.272Z,21.5
2018-08-09T18:33:53.155Z,21
2018-08-09T18:39:24.003Z,20.6
2018-08-09T18:44:53.578Z,20.3
2018-08-09T18:50:29.661Z,20
2018-08-09T18:55:54.077Z,19.8
2018-08-09T19:01:24.830Z,19.7
2018-08-09T19:07:06.450Z,19.6
2018-08-09T19:12:27.225Z,19.6
2018-08-09T19:17:57.316Z,19.7
2018-08-09T19:23:41.978Z,19.8
2018-08-09T19:28:57.621Z,19.8
2018-08-09T19:34:33.700Z,19.9
2018-08-09T19:40:03.266Z,19.9
2018-08-09T19:45:28.268Z,19.9
2018-08-09T19:50:58.666Z,19.9
2018-08-09T19:56:33.467Z,19.8
2018-08-09T20:01:58.412Z,19.7
2018-08-09T20:07:34.227Z,19.7
2018-08-09T20:13:04.800Z,19.6
2018-08-09T20:18:29.423Z,19.6
2018-08-09T20:24:15.280Z,19.5
2018-08-09T20:29:34.888Z,19.4
2018-08-09T20:35:00.954Z,19.3
2018-08-09T20:40:31.336Z,19.3
2018-08-09T20:46:02.083Z,19.3
2018-08-09T20:51:36.772Z,19.2
2018-08-09T20:57:07.495Z,19.2
2018-08-09T21:02:37.202Z,19.2
2018-08-09T21:08:02.897Z,19.2
2018-08-09T21:13:32.653Z,19.2
2018-08-09T21:19:03.387Z,19.2
2018-08-09T21:24:39.400Z,19.2
2018-08-09T21:30:09.826Z,19.2
2018-08-09T21:35:34.830Z,19.2
2018-08-09T21:41:09.263Z,19.2
2018-08-09T21:46:34.011Z,19.3
2018-08-09T21:52:04.687Z,19.3
2018-08-09T21:57:40.691Z,19.3
2018-08-09T22:03:05.130Z,19.3
2018-08-09T22:08:35.834Z,19.3
2018-08-09T22:14:14.997Z,19.4
2018-08-09T22:19:36.257Z,19.4
2018-08-09T22:25:07.067Z,19.3
2018-08-09T22:30:37.723Z,19.3
2018-08-09T22:36:07.479Z,19.3
2018-08-09T22:41:37.432Z,19.3
2018-08-09T22:47:07.125Z,19.3
2018-08-09T22:52:42.664Z,19.3
2018-08-09T22:58:12.321Z,19.4
2018-08-09T23:03:38.083Z,19.4
2018-08-09T23:09:08.797Z,19.4
2018-08-09T23:14:39.720Z,19.3
2018-08-09T23:20:15.337Z,19.3
2018-08-09T23:25:40.910Z,19.3
2018-08-09T23:31:11.619Z,19.3
2018-08-09T23:36:46.410Z,19.2
2018-08-09T23:42:12.341Z,19.2
2018-08-09T23:47:42.800Z,19.2
2018-08-09T23:53:13.846Z,19.1
2018-08-09T23:58:43.226Z,19.1
